Terminal Aerodrome Forecast
Issued by NWS

Home | Current Version | Previous Version | Text Only | Print | Product List | Glossary On
Versions: 1 2 3 4 5 6 7 8 9 10 11 12 13 14
000
FTAK31 PAFA 242334
TAFATA
TAF
PATA 242334Z 2500/2524 VRB03KT 3SM -SN BR BKN040 OVC050
     FM250300 VRB04KT 5SM -SHSN OVC025
     FM250600 VRB03KT P6SM OVC025
     FM252100 10005KT P6SM BKN025 OVC050=

USA.gov is the U.S. government's official web portal to all federal, state and local government web resources and services.